TISX/STX METAR and TAF weather

Enter ICAO airport designator
Station Type Date Time Source
TISX METAR 2022/06/29 23:53 UTC NOAA

TISX 292353Z 08016KT 10SM SCT055 28/23 A3005


Station Type Date Time Source
TISX Decoded METAR 2022/06/29 23:53 UTC NOAA

Christiansted, Henry E. Rohlsen Airport, Virgin Islands (TISX) 17-42N 064-48W 17M
Jun 29, 2022 - 07:53 PM EDT / 2022.06.29 2353 UTC
Wind: from the E (080 degrees) at 18 MPH (16 KT):0
Visibility: 10 mile(s):0
Sky conditions: partly cloudy
Temperature: 82 F (28 C)
Dew Point: 73 F (23 C)
Relative Humidity: 74%
Pressure (altimeter): 30.05 in. Hg (1017 hPa)
ob: TISX 292353Z 08016KT 10SM SCT055 28/23 A3005
cycle: 0

Station Type Date Time Source
TISX TAF 2022/06/29 18:27 UTC NOAA

TAF TISX 291720Z 2918/3018 07020G30KT P6SM VCSH SCT025 SCT035
FM292200 08015KT P6SM VCSH SCT030 SCT060 SCT100
FM301400 10015KT P6SM FEW030 SCT050
AMD NOT SKED 3001/3012

Example: see airport list